createdAt,value
2018-06-08T00:01:19.384Z,92637.47
2018-06-08T00:03:53.482Z,92641.14
2018-06-08T00:06:27.629Z,92640.23
2018-06-08T00:09:16.739Z,92640.47
2018-06-08T00:11:50.689Z,92641.34
2018-06-08T00:14:24.632Z,92638.35
2018-06-08T00:16:58.508Z,92646.12
2018-06-08T00:19:32.588Z,92646.19
2018-06-08T00:22:06.588Z,92642.97
2018-06-08T00:24:40.575Z,92643.06
2018-06-08T00:27:14.536Z,92640.00
2018-06-08T00:29:48.368Z,92636.06
2018-06-08T00:32:22.324Z,92642.62
2018-06-08T00:34:56.324Z,92643.98
2018-06-08T00:37:30.211Z,92639.22
2018-06-08T00:40:04.128Z,92646.73
2018-06-08T00:42:38.165Z,92646.00
2018-06-08T00:45:12.022Z,92646.30
2018-06-08T00:47:45.779Z,92641.41
2018-06-08T00:50:19.951Z,92643.78
2018-06-08T00:52:53.833Z,92640.22
2018-06-08T00:55:27.673Z,92641.05
2018-06-08T00:58:04.997Z,92639.50
2018-06-08T01:00:39.111Z,92643.14
2018-06-08T01:03:12.992Z,92643.67
2018-06-08T01:05:46.846Z,92641.31
2018-06-08T01:08:20.905Z,92637.21
2018-06-08T01:10:54.764Z,92639.09
2018-06-08T01:13:28.744Z,92639.98
2018-06-08T01:16:02.761Z,92633.80
2018-06-08T01:18:36.636Z,92640.91
2018-06-08T01:21:10.826Z,92637.90
2018-06-08T01:23:44.663Z,92638.41
2018-06-08T01:26:18.873Z,92639.68
2018-06-08T01:28:52.800Z,92639.83
2018-06-08T01:31:26.669Z,92640.14
2018-06-08T01:34:00.575Z,92633.02
2018-06-08T01:36:34.511Z,92630.85
2018-06-08T01:39:09.056Z,92640.88
2018-06-08T01:41:43.234Z,92634.14
2018-06-08T01:44:17.088Z,92627.39
2018-06-08T01:46:50.933Z,92629.45
2018-06-08T01:49:25.008Z,92630.56
2018-06-08T01:51:59.017Z,92639.83
2018-06-08T01:54:32.935Z,92638.80
2018-06-08T01:57:06.863Z,92641.09
2018-06-08T01:59:41.358Z,92644.01
2018-06-08T02:02:15.348Z,92643.53
2018-06-08T02:04:49.252Z,92643.66
2018-06-08T02:07:23.311Z,92638.70
2018-06-08T02:09:57.253Z,92642.70
2018-06-08T02:12:31.215Z,92644.33
2018-06-08T02:15:05.228Z,92652.50
2018-06-08T02:17:39.234Z,92658.36
2018-06-08T02:20:13.312Z,92659.84
2018-06-08T02:22:47.299Z,92660.27
2018-06-08T02:25:21.212Z,92661.95
2018-06-08T02:27:55.095Z,92661.81
2018-06-08T02:30:29.051Z,92660.28
2018-06-08T02:33:03.160Z,92651.38
2018-06-08T02:35:37.670Z,92658.58
2018-06-08T02:38:11.575Z,92663.91
2018-06-08T02:40:45.456Z,92669.97
2018-06-08T02:43:19.359Z,92672.03
2018-06-08T02:45:53.349Z,92671.17
2018-06-08T02:48:27.326Z,92664.83
2018-06-08T02:51:01.259Z,92681.84
2018-06-08T02:53:35.399Z,92681.00
2018-06-08T02:56:09.342Z,92681.70
2018-06-08T02:58:43.256Z,92691.41
2018-06-08T03:01:17.268Z,92680.02
2018-06-08T03:03:51.004Z,92685.44
2018-06-08T03:06:24.779Z,92687.69
2018-06-08T03:08:58.779Z,92692.69
2018-06-08T03:11:32.621Z,92693.38
2018-06-08T03:14:06.400Z,92697.05
2018-06-08T03:16:40.394Z,92697.51
2018-06-08T03:19:14.158Z,92694.85
2018-06-08T03:21:48.155Z,92702.08
2018-06-08T03:24:22.375Z,92696.67
2018-06-08T03:26:56.194Z,92690.90
2018-06-08T03:29:30.091Z,92691.54
2018-06-08T03:32:04.431Z,92696.71
2018-06-08T03:34:39.079Z,92695.27
2018-06-08T03:37:13.039Z,92693.80
2018-06-08T03:39:46.962Z,92693.72
2018-06-08T03:42:20.963Z,92695.23
2018-06-08T03:44:54.985Z,92697.45
2018-06-08T03:47:28.951Z,92695.23
2018-06-08T03:50:02.753Z,92692.15
2018-06-08T03:52:36.619Z,92697.86
2018-06-08T03:55:10.567Z,92693.41
2018-06-08T03:57:44.429Z,92698.00
2018-06-08T04:00:18.232Z,92700.06
2018-06-08T04:02:52.230Z,92701.58
2018-06-08T04:05:26.007Z,92702.03
2018-06-08T04:08:00.046Z,92694.50
2018-06-08T04:10:34.111Z,92696.34
2018-06-08T04:13:08.287Z,92700.84
2018-06-08T04:15:42.074Z,92697.83
2018-06-08T04:18:16.032Z,92701.95
2018-06-08T04:20:49.788Z,92697.59
2018-06-08T04:23:23.754Z,92686.41
2018-06-08T04:25:57.711Z,92686.45
2018-06-08T04:29:56.120Z,92682.88
2018-06-08T04:32:29.998Z,92695.61
2018-06-08T04:35:03.903Z,92696.16
2018-06-08T04:37:37.721Z,92697.56
2018-06-08T04:40:11.667Z,92696.38
2018-06-08T04:42:45.502Z,92695.14
2018-06-08T04:45:19.480Z,92691.80
2018-06-08T04:47:53.659Z,92691.17
2018-06-08T04:50:27.465Z,92698.48
2018-06-08T04:53:01.279Z,92695.57
2018-06-08T04:55:35.196Z,92700.84
2018-06-08T04:58:09.199Z,92700.11
2018-06-08T05:00:43.139Z,92701.98
2018-06-08T05:03:17.136Z,92700.00
2018-06-08T05:05:51.193Z,92700.29
2018-06-08T05:08:25.156Z,92703.34
2018-06-08T05:10:59.143Z,92707.46
2018-06-08T05:13:33.058Z,92705.13
2018-06-08T05:16:07.131Z,92713.05
2018-06-08T05:18:40.911Z,92714.31
2018-06-08T05:21:14.896Z,92711.89
2018-06-08T05:23:48.915Z,92706.33
2018-06-08T05:26:22.838Z,92707.70
2018-06-08T05:28:56.774Z,92708.14
2018-06-08T05:31:30.650Z,92704.25
2018-06-08T05:34:04.571Z,92714.13
2018-06-08T05:36:38.461Z,92719.02
2018-06-08T05:39:12.349Z,92713.55
2018-06-08T05:41:46.313Z,92713.97
2018-06-08T05:44:20.541Z,92710.52
2018-06-08T05:46:54.294Z,92713.02
2018-06-08T05:49:28.243Z,92712.92
2018-06-08T05:52:02.115Z,92712.22
2018-06-08T05:54:36.105Z,92711.35
2018-06-08T05:57:10.019Z,92712.64
2018-06-08T05:59:43.987Z,92713.21
2018-06-08T06:02:17.948Z,92719.70
2018-06-08T06:04:52.792Z,92717.34
2018-06-08T06:07:26.877Z,92708.64
2018-06-08T06:10:01.575Z,92705.30
2018-06-08T06:12:35.291Z,92705.00
2018-06-08T06:15:09.272Z,92710.16
2018-06-08T06:17:43.293Z,92695.92
2018-06-08T06:20:17.261Z,92701.06
2018-06-08T06:22:51.134Z,92697.34
2018-06-08T06:25:25.235Z,92691.54
2018-06-08T06:27:59.197Z,92698.75
2018-06-08T06:30:33.445Z,92697.05
2018-06-08T06:33:07.453Z,92688.98
2018-06-08T06:35:41.298Z,92689.86
2018-06-08T06:38:15.306Z,92686.90
2018-06-08T06:40:49.227Z,92684.06
2018-06-08T06:43:23.046Z,92681.33
2018-06-08T06:45:56.945Z,92679.66
2018-06-08T06:48:30.933Z,92674.35
2018-06-08T06:51:04.897Z,92672.48
2018-06-08T06:53:38.995Z,92671.56
2018-06-08T06:56:12.975Z,92677.33
2018-06-08T06:58:46.821Z,92675.27
2018-06-08T07:01:21.168Z,92672.47
2018-06-08T07:03:55.108Z,92673.59
2018-06-08T07:06:29.348Z,92663.16
2018-06-08T07:09:05.919Z,92663.11
2018-06-08T07:11:39.841Z,92667.53
2018-06-08T07:14:13.756Z,92666.66
2018-06-08T07:16:47.833Z,92664.72
2018-06-08T07:19:21.607Z,92666.25
2018-06-08T07:21:55.495Z,92660.19
2018-06-08T07:24:29.716Z,92653.34
2018-06-08T07:27:03.723Z,92662.67
2018-06-08T07:29:37.760Z,92655.89
2018-06-08T07:32:11.802Z,92648.03
2018-06-08T07:34:45.564Z,92653.94
2018-06-08T07:37:19.418Z,92651.45
2018-06-08T07:39:53.208Z,92654.01
2018-06-08T07:42:27.022Z,92650.42
2018-06-08T07:45:01.077Z,92650.31
2018-06-08T07:47:35.202Z,92646.81
2018-06-08T07:50:09.020Z,92649.24
2018-06-08T07:54:07.293Z,92647.61
2018-06-08T07:56:41.284Z,92642.40
2018-06-08T07:59:15.348Z,92645.16
2018-06-08T08:01:49.234Z,92648.11
2018-06-08T08:04:23.179Z,92640.41
2018-06-08T08:06:57.259Z,92634.02
2018-06-08T08:09:31.240Z,92639.80
2018-06-08T08:12:05.087Z,92630.98
2018-06-08T08:14:39.097Z,92633.44
2018-06-08T08:17:13.398Z,92631.14
2018-06-08T08:19:47.479Z,92624.52
2018-06-08T08:22:21.462Z,92627.62
2018-06-08T08:24:55.345Z,92626.67
2018-06-08T08:27:29.319Z,92621.70
2018-06-08T08:30:03.522Z,92618.54
2018-06-08T08:32:37.378Z,92606.27
2018-06-08T08:35:11.445Z,92606.36
2018-06-08T08:37:45.466Z,92605.08
2018-06-08T08:40:19.356Z,92592.34
2018-06-08T08:42:53.327Z,92594.16
2018-06-08T08:45:27.234Z,92600.49
2018-06-08T08:48:01.218Z,92594.70
2018-06-08T08:50:35.220Z,92589.56
2018-06-08T08:53:09.362Z,92590.55
2018-06-08T08:55:43.311Z,92580.79
2018-06-08T08:58:17.201Z,92583.58
2018-06-08T09:00:51.204Z,92577.59
2018-06-08T09:03:25.149Z,92577.01
2018-06-08T09:05:59.271Z,92578.14
2018-06-08T09:08:33.231Z,92572.34
2018-06-08T09:11:07.223Z,92572.33
2018-06-08T09:13:41.167Z,92565.84
2018-06-08T09:16:15.212Z,92566.84
2018-06-08T09:18:49.370Z,92560.28
2018-06-08T09:21:23.314Z,92555.78
2018-06-08T09:23:57.420Z,92556.14
2018-06-08T09:26:31.214Z,92547.91
2018-06-08T09:29:05.015Z,92552.04
2018-06-08T09:31:39.056Z,92550.27
2018-06-08T09:34:13.062Z,92544.96
2018-06-08T09:36:47.307Z,92541.44
2018-06-08T09:39:21.397Z,92543.75
2018-06-08T09:41:55.502Z,92538.58
2018-06-08T09:44:29.528Z,92533.32
2018-06-08T09:47:03.366Z,92534.79
2018-06-08T09:49:37.229Z,92526.05
2018-06-08T09:52:11.265Z,92525.05
2018-06-08T09:54:45.307Z,92523.09
2018-06-08T09:57:19.271Z,92528.64
2018-06-08T09:59:53.187Z,92512.63
2018-06-08T10:02:27.092Z,92509.55
2018-06-08T10:05:00.911Z,92515.30
2018-06-08T10:07:34.916Z,92517.03
2018-06-08T10:10:08.964Z,92506.39
2018-06-08T10:12:42.880Z,92508.07
2018-06-08T10:15:16.687Z,92505.79
2018-06-08T10:17:51.080Z,92508.87
2018-06-08T10:20:24.981Z,92509.27
2018-06-08T10:22:59.176Z,92501.06
2018-06-08T10:25:33.245Z,92501.02
2018-06-08T10:28:07.216Z,92481.84
2018-06-08T10:30:41.216Z,92488.91
2018-06-08T10:33:15.227Z,92487.39
2018-06-08T10:35:49.207Z,92486.00
2018-06-08T10:38:23.612Z,92481.80
2018-06-08T10:40:57.551Z,92491.67
2018-06-08T10:43:31.537Z,92487.40
2018-06-08T10:46:05.360Z,92480.61
2018-06-08T10:48:39.310Z,92474.38
2018-06-08T10:51:18.271Z,92477.83
2018-06-08T10:53:52.242Z,92472.31
2018-06-08T10:56:26.072Z,92470.98
2018-06-08T10:59:00.048Z,92477.16
2018-06-08T11:01:34.045Z,92465.35
2018-06-08T11:04:07.878Z,92464.02
2018-06-08T11:06:41.760Z,92468.21
2018-06-08T11:09:15.793Z,92464.64
2018-06-08T11:11:49.736Z,92467.32
2018-06-08T11:14:23.760Z,92466.72
2018-06-08T11:16:57.743Z,92458.38
2018-06-08T11:19:31.531Z,92456.90
2018-06-08T11:22:05.575Z,92452.75
2018-06-08T11:24:39.678Z,92452.75
2018-06-08T11:27:13.490Z,92454.28
2018-06-08T11:29:47.305Z,92445.98
2018-06-08T11:32:21.092Z,92434.86
2018-06-08T11:34:55.056Z,92442.52
2018-06-08T11:37:22.870Z,92438.99
2018-06-08T11:39:50.668Z,92432.80
2018-06-08T11:42:18.567Z,92432.63
2018-06-08T11:44:46.387Z,92431.98
2018-06-08T11:47:14.360Z,92424.23
2018-06-08T11:49:42.196Z,92427.77
2018-06-08T11:52:10.024Z,92420.95
2018-06-08T11:54:38.056Z,92425.77
2018-06-08T11:57:05.947Z,92415.34
2018-06-08T11:59:34.122Z,92417.41
2018-06-08T12:02:01.935Z,92414.00
2018-06-08T12:04:29.856Z,92411.93
2018-06-08T12:06:57.669Z,92403.59
2018-06-08T12:09:25.494Z,92393.78
2018-06-08T12:11:53.430Z,92390.92
2018-06-08T12:14:21.391Z,92394.48
2018-06-08T12:16:49.203Z,92386.05
2018-06-08T12:19:17.061Z,92394.87
2018-06-08T12:21:44.890Z,92381.75
2018-06-08T12:24:12.713Z,92380.25
2018-06-08T12:26:40.629Z,92373.27
2018-06-08T12:29:08.463Z,92365.73
2018-06-08T12:31:36.276Z,92364.95
2018-06-08T12:34:04.320Z,92367.66
2018-06-08T12:36:32.179Z,92366.35
2018-06-08T12:38:59.999Z,92365.82
2018-06-08T12:41:27.892Z,92364.93
2018-06-08T12:43:55.750Z,92353.32
2018-06-08T12:46:23.751Z,92360.12
2018-06-08T12:48:51.715Z,92360.05
2018-06-08T12:51:19.559Z,92348.92
2018-06-08T12:53:47.402Z,92348.45
2018-06-08T12:56:15.276Z,92345.62
2018-06-08T12:58:43.115Z,92341.52
2018-06-08T13:01:10.994Z,92341.48
2018-06-08T13:03:39.063Z,92337.12
2018-06-08T13:06:06.937Z,92339.88
2018-06-08T13:08:34.871Z,92333.81
2018-06-08T13:11:02.906Z,92330.91
2018-06-08T13:13:30.826Z,92326.05
2018-06-08T13:15:58.680Z,92321.33
2018-06-08T13:18:26.736Z,92315.12
2018-06-08T13:20:54.580Z,92313.65
2018-06-08T13:23:22.865Z,92309.53
2018-06-08T13:25:50.817Z,92310.81
2018-06-08T13:28:18.672Z,92305.94
2018-06-08T13:30:46.521Z,92306.66
2018-06-08T13:33:14.461Z,92292.32
2018-06-08T13:35:42.326Z,92293.59
2018-06-08T13:38:10.502Z,92289.36
2018-06-08T13:40:38.523Z,92287.72
2018-06-08T13:43:06.587Z,92281.14
2018-06-08T13:45:34.666Z,92278.77
2018-06-08T13:48:02.616Z,92271.64
2018-06-08T13:50:30.441Z,92274.34
2018-06-08T13:52:58.278Z,92268.72
2018-06-08T13:55:26.391Z,92268.81
2018-06-08T13:57:54.236Z,92267.34
2018-06-08T14:00:22.032Z,92260.67
2018-06-08T14:02:50.053Z,92261.45
2018-06-08T14:05:17.873Z,92255.41
2018-06-08T14:07:45.706Z,92256.16
2018-06-08T14:10:13.585Z,92259.57
2018-06-08T14:12:41.426Z,92256.55
2018-06-08T14:15:09.360Z,92247.51
2018-06-08T14:17:37.270Z,92250.84
2018-06-08T14:20:05.143Z,92242.39
2018-06-08T14:22:32.968Z,92237.74
2018-06-08T14:25:00.839Z,92240.79
2018-06-08T14:27:28.691Z,92243.20
2018-06-08T14:29:56.493Z,92234.59
2018-06-08T14:32:24.356Z,92233.16
2018-06-08T14:34:52.208Z,92224.98
2018-06-08T14:37:20.055Z,92220.86
2018-06-08T14:39:48.188Z,92215.81
2018-06-08T14:42:16.045Z,92216.96
2018-06-08T14:44:43.913Z,92210.81
2018-06-08T14:47:11.829Z,92210.88
2018-06-08T14:49:39.656Z,92219.41
2018-06-08T14:52:07.463Z,92208.25
2018-06-08T14:54:35.315Z,92219.58
2018-06-08T14:57:03.148Z,92217.73
2018-06-08T14:59:31.110Z,92219.06
2018-06-08T15:01:59.060Z,92216.27
2018-06-08T15:04:27.024Z,92209.51
2018-06-08T15:06:54.844Z,92211.69
2018-06-08T15:09:22.722Z,92212.35
2018-06-08T15:11:50.742Z,92204.03
2018-06-08T15:14:18.687Z,92207.67
2018-06-08T15:16:46.662Z,92206.72
2018-06-08T15:19:14.482Z,92213.06
2018-06-08T15:21:42.278Z,92210.20
2018-06-08T15:24:10.286Z,92216.20
2018-06-08T15:26:38.111Z,92222.48
2018-06-08T15:29:05.923Z,92215.20
2018-06-08T15:31:33.797Z,92227.71
2018-06-08T15:34:01.616Z,92223.31
2018-06-08T15:36:29.601Z,92235.19
2018-06-08T15:38:57.890Z,92239.22
2018-06-08T15:41:25.720Z,92238.69
2018-06-08T15:43:53.654Z,92237.80
2018-06-08T15:46:21.562Z,92234.11
2018-06-08T15:48:49.377Z,92231.42
2018-06-08T15:51:17.196Z,92227.45
2018-06-08T15:53:45.050Z,92226.37
2018-06-08T15:56:12.860Z,92219.50
2018-06-08T15:58:40.682Z,92233.34
2018-06-08T16:01:08.688Z,92224.88
2018-06-08T16:03:36.499Z,92233.16
2018-06-08T16:06:04.315Z,92227.68
2018-06-08T16:08:32.223Z,92233.42
2018-06-08T16:11:00.054Z,92231.31
2018-06-08T16:13:28.415Z,92233.41
2018-06-08T16:15:56.319Z,92232.41
2018-06-08T16:18:24.336Z,92232.68
2018-06-08T16:20:52.151Z,92229.14
2018-06-08T16:23:19.962Z,92231.65
2018-06-08T16:25:47.794Z,92230.69
2018-06-08T16:28:15.639Z,92228.58
2018-06-08T16:30:43.512Z,92224.70
2018-06-08T16:33:11.500Z,92223.11
2018-06-08T16:35:39.320Z,92227.96
2018-06-08T16:38:07.180Z,92230.89
2018-06-08T16:40:35.003Z,92229.11
2018-06-08T16:43:02.856Z,92226.30
2018-06-08T16:45:30.696Z,92235.94
2018-06-08T16:47:58.517Z,92227.44
2018-06-08T16:50:26.344Z,92226.55
2018-06-08T16:52:57.243Z,92232.42
2018-06-08T16:55:25.065Z,92234.71
2018-06-08T16:57:53.060Z,92237.36
2018-06-08T17:00:21.006Z,92236.73
2018-06-08T17:02:48.849Z,92241.15
2018-06-08T17:05:16.674Z,92239.20
2018-06-08T17:07:44.534Z,92232.20
2018-06-08T17:10:12.353Z,92227.33
2018-06-08T17:12:40.152Z,92227.09
2018-06-08T17:15:08.061Z,92223.11
2018-06-08T17:17:35.883Z,92214.02
2018-06-08T17:20:03.829Z,92214.78
2018-06-08T17:22:31.674Z,92209.13
2018-06-08T17:24:59.484Z,92206.09
2018-06-08T17:27:27.318Z,92203.41
2018-06-08T17:29:55.155Z,92222.11
2018-06-08T17:32:22.945Z,92233.26
2018-06-08T17:34:50.886Z,92247.78
2018-06-08T17:37:18.795Z,92240.03
2018-06-08T17:39:46.597Z,92231.20
2018-06-08T17:42:14.415Z,92231.65
2018-06-08T17:44:42.350Z,92226.93
2018-06-08T17:47:10.195Z,92227.42
2018-06-08T17:49:38.144Z,92231.31
2018-06-08T17:52:06.057Z,92234.95
2018-06-08T17:54:33.872Z,92238.77
2018-06-08T17:57:01.724Z,92234.34
2018-06-08T17:59:29.678Z,92243.00
2018-06-08T18:01:57.502Z,92237.68
2018-06-08T18:04:25.447Z,92236.78
2018-06-08T18:06:53.316Z,92235.44
2018-06-08T18:09:21.111Z,92232.41
2018-06-08T18:11:48.960Z,92230.12
2018-06-08T18:14:20.448Z,92232.87
2018-06-08T18:16:48.412Z,92236.84
2018-06-08T18:19:16.251Z,92240.52
2018-06-08T18:21:45.062Z,92240.52
2018-06-08T18:24:12.879Z,92240.67
2018-06-08T18:26:40.685Z,92249.75
2018-06-08T18:29:08.666Z,92249.14
2018-06-08T18:31:36.494Z,92239.83
2018-06-08T18:34:04.354Z,92247.23
2018-06-08T18:36:32.187Z,92247.64
2018-06-08T18:39:00.028Z,92249.71
2018-06-08T18:41:27.944Z,92249.61
2018-06-08T18:43:55.898Z,92252.61
2018-06-08T18:46:24.205Z,92254.44
2018-06-08T18:48:52.006Z,92255.07
2018-06-08T18:51:19.866Z,92249.55
2018-06-08T18:53:47.669Z,92257.91
2018-06-08T18:56:15.498Z,92254.14
2018-06-08T18:58:43.347Z,92259.09
2018-06-08T19:01:11.146Z,92257.62
2018-06-08T19:03:38.955Z,92253.00
2018-06-08T19:06:07.018Z,92255.53
2018-06-08T19:08:34.879Z,92262.88
2018-06-08T19:11:02.660Z,92257.00
2018-06-08T19:13:30.483Z,92261.27
2018-06-08T19:15:58.303Z,92255.59
2018-06-08T19:18:26.130Z,92249.63
2018-06-08T19:20:56.435Z,92254.30
2018-06-08T19:23:25.036Z,92253.00
2018-06-08T19:25:52.854Z,92248.92
2018-06-08T19:28:20.820Z,92251.52
2018-06-08T19:30:48.694Z,92258.95
2018-06-08T19:33:17.872Z,92251.89
2018-06-08T19:35:45.859Z,92250.19
2018-06-08T19:38:13.752Z,92244.04
2018-06-08T19:40:41.638Z,92249.25
2018-06-08T19:43:09.871Z,92249.05
2018-06-08T19:45:38.058Z,92250.06
2018-06-08T19:48:07.442Z,92254.48
2018-06-08T19:50:35.765Z,92253.71
2018-06-08T19:53:03.823Z,92259.18
2018-06-08T19:55:31.941Z,92256.52
2018-06-08T19:57:59.938Z,92257.70
2018-06-08T20:00:34.047Z,92256.36
2018-06-08T20:03:08.260Z,92256.03
2018-06-08T20:05:42.119Z,92259.02
2018-06-08T20:08:16.235Z,92260.76
2018-06-08T20:10:50.229Z,92264.66
2018-06-08T20:13:24.995Z,92265.82
2018-06-08T20:15:59.085Z,92268.59
2018-06-08T20:18:33.107Z,92277.49
2018-06-08T20:21:06.919Z,92278.60
2018-06-08T20:23:42.746Z,92283.20
2018-06-08T20:26:16.651Z,92276.48
2018-06-08T20:28:50.532Z,92273.79
2018-06-08T20:31:24.440Z,92276.36
2018-06-08T20:33:58.555Z,92265.69
2018-06-08T20:36:32.562Z,92259.95
2018-06-08T20:39:07.611Z,92259.61
2018-06-08T20:41:41.446Z,92255.31
2018-06-08T20:44:15.436Z,92267.02
2018-06-08T20:46:49.281Z,92276.46
2018-06-08T20:49:23.355Z,92280.89
2018-06-08T20:51:57.208Z,92270.41
2018-06-08T20:54:31.080Z,92274.18
2018-06-08T20:57:11.258Z,92274.10
2018-06-08T20:59:45.215Z,92267.39
2018-06-08T21:02:19.208Z,92270.62
2018-06-08T21:04:53.110Z,92273.01
2018-06-08T21:07:27.079Z,92273.36
2018-06-08T21:10:01.349Z,92270.63
2018-06-08T21:12:35.292Z,92273.40
2018-06-08T21:15:09.262Z,92274.35
2018-06-08T21:17:43.179Z,92276.87
2018-06-08T21:20:17.222Z,92279.07
2018-06-08T21:22:51.081Z,92277.44
2018-06-08T21:25:25.192Z,92276.34
2018-06-08T21:27:59.234Z,92270.75
2018-06-08T21:30:33.135Z,92267.94
2018-06-08T21:33:12.014Z,92260.61
2018-06-08T21:35:45.985Z,92265.00
2018-06-08T21:38:19.710Z,92259.66
2018-06-08T21:40:53.739Z,92258.73
2018-06-08T21:43:27.710Z,92252.69
2018-06-08T21:46:01.905Z,92250.19
2018-06-08T21:48:35.813Z,92250.00
2018-06-08T21:51:09.640Z,92255.09
2018-06-08T21:53:43.552Z,92251.30
2018-06-08T21:56:17.586Z,92251.78
2018-06-08T21:58:51.581Z,92252.87
2018-06-08T22:01:25.523Z,92248.87
2018-06-08T22:03:59.493Z,92243.21
2018-06-08T22:06:33.511Z,92238.15
2018-06-08T22:09:07.662Z,92239.23
2018-06-08T22:11:41.855Z,92237.71
2018-06-08T22:14:16.035Z,92233.30
2018-06-08T22:16:50.022Z,92233.20
2018-06-08T22:19:24.042Z,92224.37
2018-06-08T22:21:58.188Z,92226.86
2018-06-08T22:24:32.345Z,92234.75
2018-06-08T22:27:06.424Z,92232.73
2018-06-08T22:29:40.234Z,92239.35
2018-06-08T22:32:14.315Z,92236.53
2018-06-08T22:34:48.330Z,92241.61
2018-06-08T22:37:22.318Z,92235.59
2018-06-08T22:39:56.605Z,92238.23
2018-06-08T22:42:30.659Z,92236.02
2018-06-08T22:45:04.535Z,92230.80
2018-06-08T22:47:38.421Z,92230.23
2018-06-08T22:50:12.389Z,92238.73
2018-06-08T22:52:46.331Z,92234.27
2018-06-08T22:55:20.296Z,92229.57
2018-06-08T22:57:54.267Z,92232.02
2018-06-08T23:00:27.981Z,92226.53
2018-06-08T23:03:01.959Z,92227.60
2018-06-08T23:05:35.840Z,92226.75
2018-06-08T23:08:09.738Z,92226.75
2018-06-08T23:10:43.746Z,92225.25
2018-06-08T23:13:17.785Z,92226.95
2018-06-08T23:15:51.640Z,92222.12
2018-06-08T23:18:25.532Z,92216.80
2018-06-08T23:20:59.531Z,92217.16
2018-06-08T23:23:33.367Z,92215.95
2018-06-08T23:26:07.222Z,92206.47
2018-06-08T23:28:41.439Z,92202.84
2018-06-08T23:31:15.333Z,92201.23
2018-06-08T23:33:49.150Z,92199.88
2018-06-08T23:36:23.168Z,92192.68
2018-06-08T23:38:57.195Z,92192.97
2018-06-08T23:41:30.978Z,92194.39
2018-06-08T23:44:05.132Z,92186.38
2018-06-08T23:46:38.881Z,92185.92
2018-06-08T23:49:12.667Z,92179.97
2018-06-08T23:51:46.607Z,92184.86
2018-06-08T23:54:20.428Z,92186.38
2018-06-08T23:56:54.219Z,92177.34
2018-06-08T23:59:28.331Z,92185.11
